Terminal Aerodrome Forecast
Issued by NWS

Home | Current Version | Previous Version | Text Only | Print | Product List | Glossary On
Versions: 1 2 3 4 5 6 7
000
FTUS42 KTAE 270500
TAFDHN
TAF
KDHN 270536Z 2706/2806 09004KT P6SM SCT070 BKN250
     FM271400 12005KT P6SM BKN050 BKN120 OVC200=

USA.gov is the U.S. government's official web portal to all federal, state and local government web resources and services.